Time;durP1;ratioP1;P1;durP2;ratioP2;P2;SDS_P1;SDS_P2;PMS_P1;PMS_P2;Temp;Humidity;BMP_temperature;BMP_pressure;BME280_temperature;BME280_humidity;BME280_pressure;Samples;Min_cycle;Max_cycle;Signal;HPM_P1;HPM_P2
2023/04/22 00:03:03;;;;;;;27.1;14.3;;;;;;;5.3;72.4;98560;;;;
2023/04/22 00:14:03;;;;;;;20.5;12.6;;;;;;;5.3;72.9;98560;;;;
2023/04/22 00:25:03;;;;;;;20.5;12.6;;;;;;;5.1;72.2;98560;;;;
2023/04/22 00:35:03;;;;;;;20.5;12.6;;;;;;;5;72.3;98560;;;;
2023/04/22 00:45:03;;;;;;;16.7;11.5;;;;;;;4.8;74.3;98560;;;;
2023/04/22 00:56:03;;;;;;;16.7;11.5;;;;;;;4.7;74.4;98560;;;;
2023/04/22 01:06:03;;;;;;;16.7;11.5;;;;;;;4.6;74.2;98560;;;;
2023/04/22 01:17:03;;;;;;;23.8;12.6;;;;;;;4.4;75.2;98560;;;;
2023/04/22 01:28:03;;;;;;;23.8;12.6;;;;;;;4.2;75.4;98560;;;;
2023/04/22 01:38:03;;;;;;;23.8;12.6;;;;;;;4.2;78.6;98560;;;;
2023/04/22 01:49:03;;;;;;;20.5;12.4;;;;;;;4.1;78;98560;;;;
2023/04/22 01:59:03;;;;;;;20.5;12.4;;;;;;;4;77.3;98560;;;;
2023/04/22 02:10:03;;;;;;;21.8;13.2;;;;;;;3.9;77.1;98560;;;;
2023/04/22 02:20:03;;;;;;;21.8;13.2;;;;;;;3.7;79.4;98550;;;;
2023/04/22 02:30:03;;;;;;;21.8;13.2;;;;;;;3.6;80.1;98550;;;;
2023/04/22 02:41:03;;;;;;;18.9;11;;;;;;;3.6;80.3;98550;;;;
2023/04/22 02:52:03;;;;;;;18.9;11;;;;;;;3.5;79.4;98540;;;;
2023/04/22 03:03:03;;;;;;;18.9;11;;;;;;;3.4;78.7;98550;;;;
2023/04/22 03:13:03;;;;;;;18.7;10.4;;;;;;;3.3;78.5;98560;;;;
2023/04/22 03:24:03;;;;;;;18.7;10.4;;;;;;;3.2;78.5;98560;;;;
2023/04/22 03:34:03;;;;;;;;;;;;;;;3.2;79.1;98560;;;;
2023/04/22 03:45:03;;;;;;;19.6;9.9;;;;;;;3.1;80.4;98560;;;;
2023/04/22 03:56:03;;;;;;;19.6;9.9;;;;;;;3.2;81.1;98560;;;;
2023/04/22 04:07:03;;;;;;;19.6;9.9;;;;;;;3.3;80.7;98580;;;;
2023/04/22 04:17:03;;;;;;;17.7;8.7;;;;;;;3.5;80.9;98570;;;;
2023/04/22 04:27:03;;;;;;;17.7;8.7;;;;;;;3.8;81;98580;;;;
2023/04/22 04:37:03;;;;;;;17.7;8.7;;;;;;;4;81.8;98590;;;;
2023/04/22 04:48:03;;;;;;;15;9.5;;;;;;;4.4;81.4;98590;;;;
2023/04/22 04:58:03;;;;;;;15;9.5;;;;;;;4.8;80.6;98590;;;;
2023/04/22 05:08:03;;;;;;;15;9.5;;;;;;;5.3;80.5;98590;;;;
2023/04/22 05:19:03;;;;;;;16.4;10.8;;;;;;;5.9;79.6;98590;;;;
2023/04/22 05:30:03;;;;;;;16.4;10.8;;;;;;;6.5;78.8;98590;;;;
2023/04/22 05:40:03;;;;;;;20;12.1;;;;;;;7;76.7;98600;;;;
2023/04/22 05:51:03;;;;;;;20;12.1;;;;;;;7.6;75;98590;;;;
2023/04/22 06:02:03;;;;;;;20;12.1;;;;;;;8;73.1;98600;;;;
2023/04/22 06:13:03;;;;;;;20.3;13.9;;;;;;;8.6;72.7;98610;;;;
2023/04/22 06:23:04;;;;;;;20.3;13.9;;;;;;;9.2;71.5;98610;;;;
2023/04/22 06:33:03;;;;;;;20.3;13.9;;;;;;;9.8;70.6;98610;;;;
2023/04/22 06:43:03;;;;;;;21.5;16.9;;;;;;;10.5;69.4;98600;;;;
2023/04/22 06:53:03;;;;;;;21.5;16.9;;;;;;;11.2;68.4;98610;;;;
2023/04/22 07:03:03;;;;;;;21.5;16.9;;;;;;;11.8;65.4;98600;;;;
2023/04/22 07:14:03;;;;;;;19.3;15;;;;;;;12.5;64.3;98600;;;;
2023/04/22 07:24:03;;;;;;;19.3;15;;;;;;;13.1;62.9;98600;;;;
2023/04/22 07:35:03;;;;;;;19.3;15;;;;;;;13.8;60.4;98600;;;;
2023/04/22 07:45:03;;;;;;;21.4;13.3;;;;;;;14.3;55.5;98590;;;;
2023/04/22 07:56:03;;;;;;;21.4;13.3;;;;;;;15;56.2;98590;;;;
2023/04/22 08:07:03;;;;;;;21.4;13.3;;;;;;;15.6;53.8;98590;;;;
2023/04/22 08:17:03;;;;;;;14;10.4;;;;;;;16;50.8;98590;;;;
2023/04/22 08:27:03;;;;;;;14;10.4;;;;;;;16.4;48.7;98590;;;;
2023/04/22 08:38:03;;;;;;;14;10.4;;;;;;;16.7;44.4;98590;;;;
2023/04/22 08:49:03;;;;;;;10.7;6.9;;;;;;;17;41;98580;;;;
2023/04/22 09:00:03;;;;;;;10.7;6.9;;;;;;;17.3;40.1;98580;;;;
2023/04/22 09:11:03;;;;;;;8.5;5.2;;;;;;;17.6;39.8;98570;;;;
2023/04/22 09:21:03;;;;;;;8.5;5.2;;;;;;;17.6;41.9;98570;;;;
2023/04/22 09:31:03;;;;;;;8.5;5.2;;;;;;;18;41.9;98560;;;;
2023/04/22 09:42:03;;;;;;;7.4;4.6;;;;;;;18;39;98550;;;;
2023/04/22 09:53:03;;;;;;;7.4;4.6;;;;;;;18.2;38.5;98540;;;;
2023/04/22 10:03:03;;;;;;;7.4;4.6;;;;;;;18.3;37.9;98530;;;;
2023/04/22 10:14:04;;;;;;;6.9;4.8;;;;;;;18.6;38.1;98530;;;;
2023/04/22 10:25:03;;;;;;;6.9;4.8;;;;;;;18.6;37.6;98510;;;;
2023/04/22 10:35:03;;;;;;;6.9;4.8;;;;;;;18.7;37.7;98510;;;;
2023/04/22 10:45:03;;;;;;;7.5;4.9;;;;;;;19;36.6;98510;;;;
2023/04/22 10:56:04;;;;;;;7.5;4.9;;;;;;;19.1;37.2;98500;;;;
2023/04/22 11:06:03;;;;;;;7.5;4.9;;;;;;;19.1;35.8;98500;;;;
2023/04/22 11:16:03;;;;;;;7.8;4.3;;;;;;;19.2;36.6;98490;;;;
2023/04/22 11:27:04;;;;;;;7.8;4.3;;;;;;;19.3;34.7;98480;;;;
2023/04/22 11:37:03;;;;;;;7.8;4.3;;;;;;;19.2;34;98470;;;;
2023/04/22 11:47:03;;;;;;;6.9;3.8;;;;;;;19.6;33.7;98460;;;;
2023/04/22 11:58:03;;;;;;;6.9;3.8;;;;;;;19.7;31.8;98450;;;;
2023/04/22 12:09:03;;;;;;;6.9;3.8;;;;;;;19.7;31.8;98440;;;;
2023/04/22 12:19:03;;;;;;;6;3.6;;;;;;;19.8;33.4;98440;;;;
2023/04/22 12:29:03;;;;;;;6;3.6;;;;;;;20;31.5;98430;;;;
2023/04/22 12:39:03;;;;;;;6;3.6;;;;;;;20;32.9;98420;;;;
2023/04/22 12:49:03;;;;;;;6.1;3.6;;;;;;;20.2;32.5;98410;;;;
2023/04/22 13:00:05;;;;;;;6.1;3.6;;;;;;;20.5;33.5;98400;;;;
2023/04/22 13:11:03;;;;;;;8.5;3.9;;;;;;;20.4;31.3;98390;;;;
2023/04/22 13:22:03;;;;;;;8.5;3.9;;;;;;;20.3;32.9;98390;;;;
2023/04/22 13:32:03;;;;;;;8.5;3.9;;;;;;;20.4;31.7;98390;;;;
2023/04/22 13:43:03;;;;;;;6.3;4;;;;;;;20.7;31.8;98370;;;;
2023/04/22 13:54:03;;;;;;;6.3;4;;;;;;;20.9;31.5;98370;;;;
2023/04/22 14:04:03;;;;;;;6.3;4;;;;;;;20.8;33;98370;;;;
2023/04/22 14:15:03;;;;;;;8.1;4.1;;;;;;;21.2;33.6;98360;;;;
2023/04/22 14:26:03;;;;;;;8.1;4.1;;;;;;;21.2;32.3;98360;;;;
2023/04/22 14:36:03;;;;;;;8.1;4.1;;;;;;;21.4;31.7;98360;;;;
2023/04/22 14:46:03;;;;;;;8.4;4.1;;;;;;;22;31.5;98350;;;;
2023/04/22 14:57:03;;;;;;;8.4;4.1;;;;;;;21.8;31.2;98340;;;;
2023/04/22 15:08:03;;;;;;;8.4;4.1;;;;;;;21.8;32.6;98330;;;;
2023/04/22 15:19:03;;;;;;;7.1;4.4;;;;;;;24.3;28.6;98330;;;;
2023/04/22 15:30:03;;;;;;;7.1;4.4;;;;;;;25.8;26.6;98330;;;;
2023/04/22 15:41:03;;;;;;;7;3.7;;;;;;;26.7;25.4;98330;;;;
2023/04/22 15:51:03;;;;;;;7;3.7;;;;;;;27.5;24.5;98330;;;;
2023/04/22 16:02:03;;;;;;;7;3.7;;;;;;;27.9;24.6;98330;;;;
2023/04/22 16:12:03;;;;;;;6.9;3.6;;;;;;;28.3;24.2;98320;;;;
2023/04/22 16:23:03;;;;;;;6.9;3.6;;;;;;;24.8;26.7;98320;;;;
2023/04/22 16:33:03;;;;;;;6.9;3.6;;;;;;;22.1;30.1;98320;;;;
2023/04/22 16:43:04;;;;;;;7.3;3.8;;;;;;;21;31.8;98320;;;;
2023/04/22 16:54:03;;;;;;;7.3;3.8;;;;;;;19.6;34.3;98320;;;;
2023/04/22 17:04:03;;;;;;;7.3;3.8;;;;;;;18.8;35.4;98320;;;;
2023/04/22 17:15:03;;;;;;;7.1;4.2;;;;;;;18.1;37.2;98320;;;;
2023/04/22 17:26:03;;;;;;;7.1;4.2;;;;;;;17.4;38.8;98320;;;;
2023/04/22 17:37:03;;;;;;;7.1;4.2;;;;;;;16.8;40.4;98330;;;;
2023/04/22 17:47:03;;;;;;;9.9;6.5;;;;;;;16.2;41.4;98330;;;;
2023/04/22 17:57:03;;;;;;;9.9;6.5;;;;;;;15.7;42.1;98340;;;;
2023/04/22 18:08:03;;;;;;;9.9;6.5;;;;;;;15.2;42.4;98360;;;;
2023/04/22 18:19:05;;;;;;;8.5;6.4;;;;;;;14.7;44.9;98360;;;;
2023/04/22 18:29:04;;;;;;;8.5;6.4;;;;;;;14.4;45.5;98370;;;;
2023/04/22 18:40:04;;;;;;;;;;;;;;;;;;;;;
2023/04/22 18:51:03;;;;;;;8.9;6.8;;;;;;;13.8;48.4;98370;;;;
2023/04/22 19:01:04;;;;;;;8.9;6.8;;;;;;;13.5;48.8;98370;;;;
2023/04/22 19:11:03;;;;;;;10.2;7.5;;;;;;;13.3;49;98370;;;;
2023/04/22 19:22:03;;;;;;;10.2;7.5;;;;;;;12.8;50.3;98370;;;;
2023/04/22 19:33:03;;;;;;;10.2;7.5;;;;;;;12.5;51.1;98360;;;;
2023/04/22 19:43:03;;;;;;;14.1;8.5;;;;;;;12.2;51;98360;;;;
2023/04/22 19:54:03;;;;;;;14.1;8.5;;;;;;;11.9;51.7;98360;;;;
2023/04/22 20:04:03;;;;;;;14.1;8.5;;;;;;;11.6;51.3;98350;;;;
2023/04/22 20:15:04;;;;;;;14;8.6;;;;;;;11.4;51.4;98360;;;;
2023/04/22 20:26:03;;;;;;;14;8.6;;;;;;;11.1;51.7;98360;;;;
2023/04/22 20:36:04;;;;;;;14;8.6;;;;;;;10.8;52.1;98360;;;;
2023/04/22 20:46:04;;;;;;;16.8;9.9;;;;;;;10.5;52.3;98350;;;;
2023/04/22 20:56:04;;;;;;;16.8;9.9;;;;;;;10.2;52.9;98350;;;;
2023/04/22 21:07:05;;;;;;;16.8;9.9;;;;;;;9.7;55.6;98340;;;;
2023/04/22 21:17:03;;;;;;;15.1;8;;;;;;;9.4;55.8;98340;;;;
2023/04/22 21:27:03;;;;;;;15.1;8;;;;;;;9.2;56.7;98340;;;;
2023/04/22 21:38:03;;;;;;;15.1;8;;;;;;;8.8;58;98340;;;;
2023/04/22 21:48:03;;;;;;;17;11.8;;;;;;;8.6;59.1;98340;;;;
2023/04/22 21:52:41;;;;;;;17;11.8;;;;;;;8.5;59.1;98340;;;;
2023/04/22 22:03:40;;;;;;;17;11.8;;;;;;;8.2;60.2;98350;;;;
2023/04/22 22:13:40;;;;;;;20.7;11.6;;;;;;;8;61.3;98350;;;;
2023/04/22 22:23:40;;;;;;;20.7;11.6;;;;;;;7.8;62;98350;;;;
2023/04/22 22:33:41;;;;;;;20.7;11.6;;;;;;;7.7;63.4;98360;;;;
2023/04/22 22:43:40;;;;;;;21;12.5;;;;;;;7.4;63.7;98360;;;;
2023/04/22 22:54:40;;;;;;;21;12.5;;;;;;;7.3;68.1;98350;;;;
2023/04/22 23:05:40;;;;;;;21;12.5;;;;;;;7.2;67.8;98350;;;;
2023/04/22 23:16:40;;;;;;;20.5;12.9;;;;;;;7.1;69.4;98350;;;;
2023/04/22 23:27:41;;;;;;;20.5;12.9;;;;;;;6.9;68;98350;;;;
2023/04/22 23:38:40;;;;;;;20.5;12.9;;;;;;;6.7;67.9;98350;;;;
2023/04/22 23:48:40;;;;;;;18.3;10.5;;;;;;;6.5;69.1;98350;;;;
2023/04/22 23:59:40;;;;;;;18.3;10.5;;;;;;;6.4;69.2;98340;;;;
